createdAt,value
2023-05-10T00:00:44.420Z,99990.50
2023-05-10T00:03:11.063Z,99960.56
2023-05-10T00:05:37.653Z,99986.97
2023-05-10T00:08:04.325Z,99969.47
2023-05-10T00:10:30.841Z,99953.06
2023-05-10T00:12:57.430Z,99972.81
2023-05-10T00:15:23.907Z,99949.56
2023-05-10T00:17:50.443Z,99978.00
2023-05-10T00:20:17.797Z,99985.81
2023-05-10T00:22:44.757Z,99987.16
2023-05-10T00:25:11.669Z,99978.28
2023-05-10T00:27:38.496Z,99975.28
2023-05-10T00:30:05.626Z,99956.28
2023-05-10T00:32:32.431Z,99974.47
2023-05-10T00:34:59.063Z,99970.13
2023-05-10T00:37:25.905Z,99980.41
2023-05-10T00:39:52.452Z,99966.78
2023-05-10T00:42:19.260Z,99921.53
2023-05-10T00:44:45.823Z,99977.75
2023-05-10T00:47:12.665Z,99970.44
2023-05-10T00:49:39.175Z,99954.78
2023-05-10T00:52:05.665Z,99972.19
2023-05-10T00:54:35.083Z,99975.50
2023-05-10T00:57:02.286Z,99952.66
2023-05-10T00:59:29.707Z,99959.81
2023-05-10T01:01:56.329Z,99969.81
2023-05-10T01:04:26.594Z,99969.00
2023-05-10T01:06:54.731Z,99978.31
2023-05-10T01:09:22.389Z,99969.81
2023-05-10T01:11:49.813Z,99936.75
2023-05-10T01:14:19.859Z,99958.97
2023-05-10T01:16:48.472Z,99977.16
2023-05-10T01:19:24.162Z,99979.25
2023-05-10T01:22:26.957Z,99981.94
2023-05-10T01:25:11.711Z,99977.84
2023-05-10T01:27:56.573Z,99984.53
2023-05-10T01:30:35.580Z,99980.84
2023-05-10T01:33:12.616Z,99990.13
2023-05-10T01:35:46.531Z,99969.50
2023-05-10T01:38:19.585Z,99984.66
2023-05-10T01:41:08.020Z,99983.53
2023-05-10T01:43:44.521Z,99991.56
2023-05-10T01:46:17.666Z,99981.50
2023-05-10T01:48:53.665Z,99983.88
2023-05-10T01:51:26.432Z,99964.47
2023-05-10T01:53:55.403Z,100001.22
2023-05-10T01:56:25.276Z,99993.22
2023-05-10T01:58:53.234Z,99979.53
2023-05-10T02:01:21.736Z,99966.31
2023-05-10T02:03:50.612Z,99997.22
2023-05-10T02:06:17.814Z,99995.03
2023-05-10T02:08:45.031Z,99964.81
2023-05-10T02:11:12.246Z,99995.84
2023-05-10T02:13:40.497Z,99988.78
2023-05-10T02:16:07.593Z,100011.59
2023-05-10T02:18:36.001Z,100010.41
2023-05-10T02:21:03.222Z,100009.09
2023-05-10T02:23:30.844Z,100011.28
2023-05-10T02:25:58.001Z,100008.59
2023-05-10T02:28:25.146Z,100010.59
2023-05-10T02:30:52.398Z,100001.88
2023-05-10T02:33:20.296Z,100010.59
2023-05-10T02:35:47.700Z,99994.72
2023-05-10T02:38:15.712Z,99997.88
2023-05-10T02:40:43.528Z,100022.44
2023-05-10T02:43:14.568Z,100017.09
2023-05-10T02:45:42.471Z,99995.06
2023-05-10T02:48:09.123Z,100002.06
2023-05-10T02:50:36.826Z,100012.28
2023-05-10T02:53:09.727Z,100013.06
2023-05-10T02:55:39.141Z,100038.28
2023-05-10T02:58:05.879Z,100018.88
2023-05-10T03:00:32.530Z,100045.97
2023-05-10T03:02:59.209Z,100018.41
2023-05-10T03:05:26.099Z,100028.63
2023-05-10T03:07:53.556Z,100044.00
2023-05-10T03:10:20.426Z,100045.03
2023-05-10T03:13:14.369Z,100036.50
2023-05-10T03:15:46.914Z,100045.00
2023-05-10T03:18:37.923Z,100044.53
2023-05-10T03:21:07.179Z,100046.50
2023-05-10T03:23:33.699Z,100052.88
2023-05-10T03:26:00.742Z,100053.06
2023-05-10T03:28:28.246Z,100067.91
2023-05-10T03:30:55.184Z,100039.34
2023-05-10T03:33:21.805Z,100038.66
2023-05-10T03:35:48.967Z,100055.56
2023-05-10T03:38:15.548Z,100056.22
2023-05-10T03:40:42.061Z,100060.41
2023-05-10T03:43:08.757Z,100064.09
2023-05-10T03:45:35.656Z,100035.25
2023-05-10T03:48:02.473Z,100073.75
2023-05-10T03:50:29.208Z,100064.69
2023-05-10T03:52:56.109Z,100045.53
2023-05-10T03:55:23.444Z,100083.38
2023-05-10T03:57:50.661Z,100082.06
2023-05-10T04:00:17.999Z,100074.53
2023-05-10T04:02:46.009Z,100073.38
2023-05-10T04:05:13.611Z,100078.13
2023-05-10T04:07:40.346Z,100064.09
2023-05-10T04:10:08.016Z,100076.47
2023-05-10T04:12:34.819Z,100080.75
2023-05-10T04:15:01.319Z,100080.28
2023-05-10T04:17:28.079Z,100080.81
2023-05-10T04:19:55.686Z,100065.75
2023-05-10T04:22:22.569Z,100059.25
2023-05-10T04:24:49.109Z,100094.66
2023-05-10T04:27:15.934Z,100097.81
2023-05-10T04:29:42.589Z,100096.88
2023-05-10T04:32:09.173Z,100099.38
2023-05-10T04:34:35.627Z,100092.84
2023-05-10T04:37:02.264Z,100094.81
2023-05-10T04:39:28.738Z,100096.38
2023-05-10T04:41:55.181Z,100094.78
2023-05-10T04:44:21.736Z,100093.09
2023-05-10T04:46:48.361Z,100098.50
2023-05-10T04:49:15.436Z,100097.84
2023-05-10T04:51:41.989Z,100096.66
2023-05-10T04:54:09.059Z,100102.84
2023-05-10T04:56:35.625Z,100084.81
2023-05-10T04:59:02.339Z,100092.75
2023-05-10T05:01:28.906Z,100108.03
2023-05-10T05:03:55.648Z,100107.22
2023-05-10T05:06:22.295Z,100080.56
2023-05-10T05:08:50.441Z,100115.09
2023-05-10T05:11:17.758Z,100095.50
2023-05-10T05:13:44.579Z,100121.91
2023-05-10T05:16:12.183Z,100099.19
2023-05-10T05:18:39.194Z,100122.81
2023-05-10T05:21:18.073Z,100134.81
2023-05-10T05:23:44.942Z,100121.94
2023-05-10T05:26:11.689Z,100116.56
2023-05-10T05:28:38.577Z,100120.63
2023-05-10T05:31:06.589Z,100131.97
2023-05-10T05:33:33.192Z,100135.63
2023-05-10T05:36:02.350Z,100120.25
2023-05-10T05:38:29.063Z,100134.50
2023-05-10T05:40:56.196Z,100141.44
2023-05-10T05:43:22.649Z,100142.66
2023-05-10T05:45:49.249Z,100101.53
2023-05-10T05:48:15.770Z,100134.50
2023-05-10T05:50:42.258Z,100156.59
2023-05-10T05:53:09.784Z,100141.38
2023-05-10T05:55:36.588Z,100144.34
2023-05-10T05:58:04.118Z,100139.66
2023-05-10T06:00:30.926Z,100141.16
2023-05-10T06:02:58.066Z,100136.66
2023-05-10T06:05:24.863Z,100142.06
2023-05-10T06:07:51.411Z,100141.00
2023-05-10T06:10:18.351Z,100126.59
2023-05-10T06:12:45.057Z,100149.97
2023-05-10T06:15:12.069Z,100164.91
2023-05-10T06:17:39.799Z,100161.59
2023-05-10T06:20:07.445Z,100173.97
2023-05-10T06:22:33.912Z,100175.13
2023-05-10T06:25:00.377Z,100171.13
2023-05-10T06:27:26.982Z,100083.44
2023-05-10T06:30:02.079Z,100181.13
2023-05-10T06:32:32.260Z,100187.31
2023-05-10T06:34:58.788Z,100165.00
2023-05-10T06:37:25.216Z,100160.41
2023-05-10T06:39:51.669Z,100189.56
2023-05-10T06:42:18.539Z,100159.75
2023-05-10T06:44:45.019Z,100189.44
2023-05-10T06:47:11.639Z,100159.88
2023-05-10T06:49:38.475Z,100183.84
2023-05-10T06:52:05.128Z,100187.44
2023-05-10T06:54:31.639Z,100193.31
2023-05-10T06:56:58.797Z,100186.94
2023-05-10T06:59:25.432Z,100164.59
2023-05-10T07:01:52.124Z,100197.44
2023-05-10T07:04:18.661Z,100198.59
2023-05-10T07:06:47.199Z,100185.91
2023-05-10T07:09:14.439Z,100203.94
2023-05-10T07:11:40.954Z,100212.13
2023-05-10T07:14:07.649Z,100179.16
2023-05-10T07:16:34.257Z,100213.81
2023-05-10T07:19:01.069Z,100218.34
2023-05-10T07:21:29.578Z,100196.75
2023-05-10T07:23:56.400Z,100223.81
2023-05-10T07:26:22.920Z,100229.25
2023-05-10T07:28:50.016Z,100215.91
2023-05-10T07:31:16.563Z,100230.50
2023-05-10T07:33:42.985Z,100229.97
2023-05-10T07:36:09.624Z,100224.34
2023-05-10T07:38:38.388Z,100216.38
2023-05-10T07:41:06.391Z,100216.53
2023-05-10T07:43:33.052Z,100215.31
2023-05-10T07:46:00.691Z,100189.19
2023-05-10T07:48:27.288Z,100208.63
2023-05-10T07:50:53.732Z,100205.78
2023-05-10T07:53:20.461Z,100193.31
2023-05-10T07:55:51.883Z,100170.44
2023-05-10T07:58:18.979Z,100222.56
2023-05-10T08:00:45.403Z,100216.06
2023-05-10T08:03:12.300Z,100190.09
2023-05-10T08:05:38.909Z,100223.75
2023-05-10T08:08:12.274Z,100208.66
2023-05-10T08:10:38.977Z,100219.59
2023-05-10T08:13:05.450Z,100213.03
2023-05-10T08:15:31.990Z,100210.56
2023-05-10T08:17:58.599Z,100217.19
2023-05-10T08:20:25.261Z,100221.25
2023-05-10T08:22:52.113Z,100192.41
2023-05-10T08:25:18.903Z,100194.03
2023-05-10T08:27:45.758Z,100227.06
2023-05-10T08:30:13.069Z,100214.47
2023-05-10T08:32:39.630Z,100232.47
2023-05-10T08:35:06.493Z,100231.91
2023-05-10T08:37:33.909Z,100238.53
2023-05-10T08:40:00.708Z,100228.13
2023-05-10T08:42:29.977Z,100254.66
2023-05-10T08:44:57.840Z,100249.94
2023-05-10T08:47:26.354Z,100234.53
2023-05-10T08:49:53.511Z,100213.31
2023-05-10T08:52:20.770Z,100266.25
2023-05-10T08:54:47.511Z,100262.47
2023-05-10T08:57:14.389Z,100251.72
2023-05-10T08:59:41.029Z,100265.16
2023-05-10T09:02:09.591Z,100265.50
2023-05-10T09:04:36.104Z,100272.22
2023-05-10T09:07:02.801Z,100271.81
2023-05-10T09:09:29.961Z,100262.94
2023-05-10T09:11:56.592Z,100254.56
2023-05-10T09:14:24.942Z,100247.53
2023-05-10T09:16:52.025Z,100272.97
2023-05-10T09:19:18.621Z,100254.25
2023-05-10T09:21:45.102Z,100250.28
2023-05-10T09:24:11.604Z,100281.53
2023-05-10T09:26:47.574Z,100250.53
2023-05-10T09:29:16.654Z,100281.84
2023-05-10T09:31:47.565Z,100284.91
2023-05-10T09:34:22.137Z,100288.00
2023-05-10T09:36:53.638Z,100247.34
2023-05-10T09:39:20.460Z,100287.41
2023-05-10T09:41:47.924Z,100266.63
2023-05-10T09:44:18.796Z,100268.75
2023-05-10T09:46:50.530Z,100245.53
2023-05-10T09:49:17.024Z,100274.63
2023-05-10T09:51:43.951Z,100288.63
2023-05-10T09:54:15.728Z,100209.19
2023-05-10T09:56:42.615Z,100292.75
2023-05-10T09:59:11.446Z,100278.44
2023-05-10T10:01:38.640Z,100281.00
2023-05-10T10:04:07.504Z,100285.44
2023-05-10T10:06:43.231Z,100277.78
2023-05-10T10:09:10.506Z,100260.19
2023-05-10T10:11:38.586Z,100279.56
2023-05-10T10:14:06.010Z,100272.69
2023-05-10T10:16:33.291Z,100261.94
2023-05-10T10:19:00.035Z,100270.66
2023-05-10T10:21:26.676Z,100256.53
2023-05-10T10:23:54.061Z,100270.09
2023-05-10T10:26:22.016Z,100267.72
2023-05-10T10:29:14.886Z,100274.22
2023-05-10T10:31:53.342Z,100269.66
2023-05-10T10:34:30.144Z,100269.69
2023-05-10T10:36:57.962Z,100272.22
2023-05-10T10:39:26.314Z,100273.06
2023-05-10T10:41:55.024Z,100278.28
2023-05-10T10:44:26.138Z,100278.41
2023-05-10T10:47:09.172Z,100262.84
2023-05-10T10:49:43.903Z,100249.47
2023-05-10T10:52:33.825Z,100266.25
2023-05-10T10:55:04.887Z,100261.03
2023-05-10T10:57:44.793Z,100260.47
2023-05-10T11:00:25.968Z,100263.69
2023-05-10T11:02:58.845Z,100259.28
2023-05-10T11:05:26.798Z,100262.00
2023-05-10T11:07:57.953Z,100261.44
2023-05-10T11:10:25.836Z,100276.72
2023-05-10T11:13:09.297Z,100260.00
2023-05-10T11:15:39.659Z,100270.75
2023-05-10T11:18:18.790Z,100279.88
2023-05-10T11:20:47.679Z,100259.03
2023-05-10T11:23:16.779Z,100279.25
2023-05-10T11:25:45.053Z,100247.34
2023-05-10T11:28:15.383Z,100270.41
2023-05-10T11:30:44.289Z,100257.47
2023-05-10T11:33:12.857Z,100279.22
2023-05-10T11:35:43.139Z,100282.38
2023-05-10T11:38:11.820Z,100283.75
2023-05-10T11:40:39.178Z,100214.22
2023-05-10T11:43:06.589Z,100290.16
2023-05-10T11:45:33.854Z,100302.69
2023-05-10T11:48:00.535Z,100314.56
2023-05-10T11:50:27.688Z,100321.31
2023-05-10T11:52:55.547Z,100294.81
2023-05-10T11:55:22.301Z,100316.78
2023-05-10T11:57:52.946Z,100236.81
2023-05-10T12:00:19.855Z,100296.31
2023-05-10T12:02:46.809Z,100317.41
2023-05-10T12:05:13.662Z,100329.56
2023-05-10T12:07:40.113Z,100324.47
2023-05-10T12:10:10.584Z,100326.22
2023-05-10T12:12:38.875Z,100315.88
2023-05-10T12:15:07.422Z,100319.03
2023-05-10T12:17:33.989Z,100320.06
2023-05-10T12:20:15.761Z,100331.84
2023-05-10T12:22:45.584Z,100336.94
2023-05-10T12:25:12.607Z,100341.00
2023-05-10T12:27:39.237Z,100336.66
2023-05-10T12:30:06.622Z,100306.38
2023-05-10T12:32:40.443Z,100344.47
2023-05-10T12:35:07.577Z,100329.03
2023-05-10T12:37:36.877Z,100332.28
2023-05-10T12:40:05.934Z,100336.38
2023-05-10T12:42:33.117Z,100351.09
2023-05-10T12:44:59.677Z,100349.25
2023-05-10T12:47:26.363Z,100323.81
2023-05-10T12:49:52.801Z,100325.78
2023-05-10T12:52:19.396Z,100337.56
2023-05-10T12:54:45.944Z,100322.78
2023-05-10T12:57:12.399Z,100324.59
2023-05-10T12:59:38.903Z,100303.78
2023-05-10T13:02:05.712Z,100341.16
2023-05-10T13:04:32.258Z,100320.28
2023-05-10T13:06:59.906Z,100282.19
2023-05-10T13:09:28.016Z,100349.72
2023-05-10T13:11:55.185Z,100368.06
2023-05-10T13:14:21.794Z,100357.72
2023-05-10T13:16:48.737Z,100355.09
2023-05-10T13:19:17.955Z,100360.34
2023-05-10T13:21:47.854Z,100348.63
2023-05-10T13:24:14.760Z,100361.69
2023-05-10T13:26:41.787Z,100357.50
2023-05-10T13:29:08.672Z,100338.38
2023-05-10T13:31:36.179Z,100363.53
2023-05-10T13:34:03.346Z,100359.91
2023-05-10T13:36:29.984Z,100328.91
2023-05-10T13:38:56.442Z,100371.25
2023-05-10T13:41:22.976Z,100360.91
2023-05-10T13:43:50.259Z,100334.66
2023-05-10T13:46:17.809Z,100335.50
2023-05-10T13:48:44.361Z,100360.19
2023-05-10T13:51:10.793Z,100361.50
2023-05-10T13:53:37.487Z,100362.81
2023-05-10T13:56:04.369Z,100353.75
2023-05-10T13:58:31.177Z,100368.69
2023-05-10T14:00:58.011Z,100340.91
2023-05-10T14:03:24.539Z,100360.06
2023-05-10T14:05:51.244Z,100367.03
2023-05-10T14:08:18.595Z,100360.06
2023-05-10T14:10:45.068Z,100343.97
2023-05-10T14:13:11.675Z,100367.53
2023-05-10T14:15:38.112Z,100369.06
2023-05-10T14:18:04.781Z,100340.91
2023-05-10T14:20:33.068Z,100365.41
2023-05-10T14:22:59.564Z,100372.06
2023-05-10T14:25:26.371Z,100363.56
2023-05-10T14:27:55.496Z,100338.50
2023-05-10T14:30:21.984Z,100342.97
2023-05-10T14:32:48.515Z,100352.72
2023-05-10T14:35:16.928Z,100367.28
2023-05-10T14:37:45.800Z,100367.16
2023-05-10T14:40:13.305Z,100349.38
2023-05-10T14:42:39.784Z,100363.78
2023-05-10T14:45:06.664Z,100357.50
2023-05-10T14:47:33.410Z,100368.22
2023-05-10T14:50:00.059Z,100366.44
2023-05-10T14:52:26.954Z,100360.91
2023-05-10T14:54:53.602Z,100366.84
2023-05-10T14:57:20.199Z,100356.66
2023-05-10T14:59:46.827Z,100364.22
2023-05-10T15:02:14.517Z,100364.22
2023-05-10T15:04:41.360Z,100334.81
2023-05-10T15:07:08.294Z,100356.19
2023-05-10T15:09:34.805Z,100364.59
2023-05-10T15:12:01.574Z,100360.84
2023-05-10T15:14:28.092Z,100333.41
2023-05-10T15:16:54.645Z,100355.88
2023-05-10T15:19:21.510Z,100358.38
2023-05-10T15:21:48.308Z,100353.19
2023-05-10T15:24:15.486Z,100328.56
2023-05-10T15:26:42.112Z,100367.59
2023-05-10T15:29:08.737Z,100372.34
2023-05-10T15:31:37.871Z,100340.28
2023-05-10T15:34:04.477Z,100349.56
2023-05-10T15:36:32.862Z,100351.53
2023-05-10T15:38:59.356Z,100355.50
2023-05-10T15:41:26.198Z,100372.44
2023-05-10T15:43:52.685Z,100364.25
2023-05-10T15:46:19.164Z,100366.25
2023-05-10T15:48:45.695Z,100365.88
2023-05-10T15:51:12.364Z,100369.16
2023-05-10T15:53:41.023Z,100366.91
2023-05-10T15:56:13.993Z,100373.34
2023-05-10T15:58:40.910Z,100372.16
2023-05-10T16:01:07.784Z,100365.69
2023-05-10T16:03:37.301Z,100377.97
2023-05-10T16:06:04.493Z,100375.44
2023-05-10T16:08:33.201Z,100374.44
2023-05-10T16:11:00.721Z,100377.97
2023-05-10T16:13:27.346Z,100384.09
2023-05-10T16:15:54.036Z,100362.44
2023-05-10T16:18:20.699Z,100382.53
2023-05-10T16:20:47.286Z,100385.25
2023-05-10T16:23:15.045Z,100385.66
2023-05-10T16:25:41.991Z,100370.25
2023-05-10T16:28:08.508Z,100367.47
2023-05-10T16:30:35.065Z,100386.34
2023-05-10T16:33:02.376Z,100382.31
2023-05-10T16:35:29.922Z,100373.53
2023-05-10T16:37:57.215Z,100395.28
2023-05-10T16:40:24.015Z,100391.56
2023-05-10T16:42:50.498Z,100398.16
2023-05-10T16:45:17.364Z,100390.34
2023-05-10T16:47:44.114Z,100379.88
2023-05-10T16:50:14.837Z,100408.94
2023-05-10T16:52:41.594Z,100401.25
2023-05-10T16:55:08.534Z,100403.59
2023-05-10T16:57:35.265Z,100388.25
2023-05-10T17:00:01.778Z,100384.53
2023-05-10T17:02:28.439Z,100398.31
2023-05-10T17:04:56.128Z,100412.16
2023-05-10T17:07:25.466Z,100413.84
2023-05-10T17:09:52.757Z,100398.69
2023-05-10T17:12:19.324Z,100408.50
2023-05-10T17:14:45.877Z,100392.97
2023-05-10T17:17:12.422Z,100402.69
2023-05-10T17:19:38.950Z,100406.63
2023-05-10T17:22:05.482Z,100423.09
2023-05-10T17:24:32.993Z,100430.13
2023-05-10T17:27:00.562Z,100428.06
2023-05-10T17:29:28.050Z,100430.22
2023-05-10T17:31:54.647Z,100405.53
2023-05-10T17:34:21.619Z,100430.75
2023-05-10T17:36:48.089Z,100403.88
2023-05-10T17:39:14.688Z,100412.56
2023-05-10T17:41:41.197Z,100443.88
2023-05-10T17:44:07.686Z,100427.16
2023-05-10T17:46:34.280Z,100449.44
2023-05-10T17:49:01.060Z,100441.47
2023-05-10T17:51:28.886Z,100446.94
2023-05-10T17:53:55.762Z,100450.97
2023-05-10T17:56:22.371Z,100451.25
2023-05-10T17:58:50.404Z,100455.03
2023-05-10T18:01:16.899Z,100450.63
2023-05-10T18:03:43.714Z,100449.78
2023-05-10T18:06:10.354Z,100422.84
2023-05-10T18:08:37.089Z,100466.81
2023-05-10T18:11:03.566Z,100464.84
2023-05-10T18:13:30.140Z,100468.50
2023-05-10T18:15:56.596Z,100465.63
2023-05-10T18:18:23.480Z,100471.47
2023-05-10T18:20:56.348Z,100446.72
2023-05-10T18:23:24.401Z,100469.25
2023-05-10T18:25:51.786Z,100453.72
2023-05-10T18:28:18.801Z,100472.97
2023-05-10T18:30:45.463Z,100460.09
2023-05-10T18:33:12.151Z,100482.94
2023-05-10T18:35:40.142Z,100489.47
2023-05-10T18:38:09.642Z,100487.00
2023-05-10T18:40:36.695Z,100471.03
2023-05-10T18:43:03.778Z,100504.41
2023-05-10T18:45:30.299Z,100514.66
2023-05-10T18:47:57.132Z,100525.63
2023-05-10T18:50:23.706Z,100534.16
2023-05-10T18:52:50.563Z,100541.53
2023-05-10T18:55:17.317Z,100512.13
2023-05-10T18:57:45.100Z,100543.53
2023-05-10T19:00:13.574Z,100532.56
2023-05-10T19:02:40.446Z,100548.03
2023-05-10T19:05:07.938Z,100554.44
2023-05-10T19:07:34.390Z,100560.13
2023-05-10T19:10:00.926Z,100525.00
2023-05-10T19:12:27.391Z,100555.53
2023-05-10T19:14:54.037Z,100543.22
2023-05-10T19:17:20.624Z,100563.78
2023-05-10T19:19:48.520Z,100559.84
2023-05-10T19:22:15.624Z,100567.44
2023-05-10T19:24:42.314Z,100544.88
2023-05-10T19:27:09.032Z,100576.44
2023-05-10T19:29:35.631Z,100563.44
2023-05-10T19:32:02.154Z,100573.66
2023-05-10T19:34:29.112Z,100563.75
2023-05-10T19:36:56.165Z,100570.84
2023-05-10T19:39:22.661Z,100567.28
2023-05-10T19:41:49.572Z,100560.94
2023-05-10T19:44:16.422Z,100582.22
2023-05-10T19:46:43.220Z,100580.31
2023-05-10T19:49:09.757Z,100582.75
2023-05-10T19:51:36.449Z,100569.63
2023-05-10T19:54:02.988Z,100594.34
2023-05-10T19:56:29.915Z,100573.13
2023-05-10T19:58:56.426Z,100565.94
2023-05-10T20:01:23.066Z,100576.34
2023-05-10T20:03:49.593Z,100602.53
2023-05-10T20:06:16.404Z,100585.19
2023-05-10T20:08:43.252Z,100585.41
2023-05-10T20:11:09.839Z,100558.88
2023-05-10T20:13:36.565Z,100588.06
2023-05-10T20:16:05.049Z,100585.41
2023-05-10T20:18:31.690Z,100590.78
2023-05-10T20:20:59.550Z,100587.28
2023-05-10T20:23:26.449Z,100583.00
2023-05-10T20:25:54.739Z,100572.38
2023-05-10T20:28:23.002Z,100591.69
2023-05-10T20:30:53.287Z,100601.78
2023-05-10T20:33:20.996Z,100568.25
2023-05-10T20:35:48.109Z,100601.94
2023-05-10T20:38:14.654Z,100590.75
2023-05-10T20:40:41.606Z,100588.00
2023-05-10T20:43:08.101Z,100593.44
2023-05-10T20:45:37.545Z,100586.25
2023-05-10T20:48:04.758Z,100589.75
2023-05-10T20:50:31.290Z,100569.31
2023-05-10T20:52:57.894Z,100592.78
2023-05-10T20:55:24.589Z,100565.69
2023-05-10T20:57:51.454Z,100589.13
2023-05-10T21:00:18.406Z,100593.75
2023-05-10T21:02:45.963Z,100591.38
2023-05-10T21:05:12.937Z,100564.88
2023-05-10T21:07:40.579Z,100592.53
2023-05-10T21:10:08.192Z,100556.69
2023-05-10T21:12:34.768Z,100547.81
2023-05-10T21:15:01.381Z,100566.75
2023-05-10T21:17:27.970Z,100572.75
2023-05-10T21:19:54.609Z,100580.50
2023-05-10T21:22:21.496Z,100569.00
2023-05-10T21:24:48.496Z,100595.44
2023-05-10T21:27:14.986Z,100595.50
2023-05-10T21:29:41.555Z,100560.16
2023-05-10T21:32:08.099Z,100593.19
2023-05-10T21:34:35.026Z,100596.28
2023-05-10T21:37:01.528Z,100593.97
2023-05-10T21:39:27.997Z,100556.06
2023-05-10T21:41:54.608Z,100574.84
2023-05-10T21:44:21.177Z,100585.59
2023-05-10T21:46:47.753Z,100598.50
2023-05-10T21:49:14.384Z,100561.75
2023-05-10T21:51:41.316Z,100603.69
2023-05-10T21:54:07.728Z,100590.44
2023-05-10T21:56:34.205Z,100586.06
2023-05-10T21:59:00.875Z,100560.94
2023-05-10T22:01:27.770Z,100581.53
2023-05-10T22:03:54.349Z,100577.69
2023-05-10T22:06:20.914Z,100588.59
2023-05-10T22:08:47.457Z,100564.81
2023-05-10T22:11:15.278Z,100573.00
2023-05-10T22:13:41.775Z,100592.28
2023-05-10T22:16:08.321Z,100589.94
2023-05-10T22:18:35.155Z,100594.56
2023-05-10T22:21:01.964Z,100593.72
2023-05-10T22:23:28.430Z,100604.63
2023-05-10T22:25:59.919Z,100561.88
2023-05-10T22:28:26.852Z,100571.31
2023-05-10T22:30:53.721Z,100595.63
2023-05-10T22:33:20.197Z,100598.16
2023-05-10T22:35:46.804Z,100596.75
2023-05-10T22:38:13.597Z,100588.69
2023-05-10T22:40:40.271Z,100595.28
2023-05-10T22:43:06.890Z,100591.81
2023-05-10T22:45:33.664Z,100575.31
2023-05-10T22:48:00.234Z,100599.09
2023-05-10T22:50:26.807Z,100600.22
2023-05-10T22:52:53.352Z,100598.81
2023-05-10T22:55:20.533Z,100590.94
2023-05-10T22:57:47.008Z,100575.47
2023-05-10T23:00:14.112Z,100605.81
2023-05-10T23:02:40.981Z,100581.16
2023-05-10T23:05:08.188Z,100580.31
2023-05-10T23:07:34.690Z,100569.09
2023-05-10T23:10:01.228Z,100588.84
2023-05-10T23:12:28.237Z,100582.31
2023-05-10T23:14:54.807Z,100599.59
2023-05-10T23:17:21.273Z,100597.28
2023-05-10T23:19:47.915Z,100618.75
2023-05-10T23:22:14.645Z,100619.03
2023-05-10T23:24:41.146Z,100581.84
2023-05-10T23:27:07.740Z,100608.84
2023-05-10T23:29:34.754Z,100591.28
2023-05-10T23:32:01.361Z,100612.72
2023-05-10T23:34:27.957Z,100626.00
2023-05-10T23:36:54.492Z,100576.13
2023-05-10T23:39:22.048Z,100604.34
2023-05-10T23:41:48.661Z,100613.09
2023-05-10T23:44:15.535Z,100580.41
2023-05-10T23:46:42.025Z,100619.19
2023-05-10T23:49:08.927Z,100615.06
2023-05-10T23:51:35.612Z,100611.91
2023-05-10T23:54:02.278Z,100602.69
2023-05-10T23:56:28.776Z,100584.75
2023-05-10T23:58:55.951Z,100566.09
